Time,TemperatureF,DewpointF,PressureIn,WindDirection,WindDirectionDegrees,WindSpeedMPH,WindSpeedGustMPH,Humidity,HourlyPrecipIn,Conditions,Clouds,dailyrainin,SolarRadiationWatts/m^2,SoftwareType,DateUTC
2013-06-12 00:02:00,69.1,61.9,29.92,North,5,3.0,5.0,78,0.00,,,0.03,0.0,meteohub,2013-06-12 04:02:00,
2013-06-12 00:03:00,69.1,61.9,29.92,North,5,3.0,5.0,78,0.00,,,0.03,0.0,meteohub,2013-06-12 04:03:00,
2013-06-12 00:06:00,69.1,61.9,29.92,North,5,3.0,5.0,78,0.00,,,0.00,0.0,meteohub,2013-06-12 04:06:00,
2013-06-12 00:07:00,69.1,61.9,29.92,North,5,3.0,5.0,78,0.00,,,0.00,0.0,meteohub,2013-06-12 04:07:00,
2013-06-12 00:12:00,68.7,61.9,29.92,North,5,2.0,6.0,79,0.00,,,0.00,0.0,meteohub,2013-06-12 04:12:00,
2013-06-12 00:17:00,68.4,61.9,29.91,North,0,1.0,6.0,80,0.00,,,0.00,0.0,meteohub,2013-06-12 04:17:00,
2013-06-12 00:18:00,68.4,61.9,29.91,North,0,2.0,6.0,80,0.00,,,0.00,0.0,meteohub,2013-06-12 04:18:00,
2013-06-12 00:24:00,68.2,61.7,29.92,North,0,1.0,6.0,80,0.00,,,0.00,0.0,meteohub,2013-06-12 04:24:00,
2013-06-12 00:30:00,68.0,62.2,29.92,North,0,0.0,4.0,82,0.00,,,0.00,0.0,meteohub,2013-06-12 04:30:00,
2013-06-12 00:36:00,67.6,62.2,29.92,North,0,0.0,4.0,83,0.00,,,0.00,0.0,meteohub,2013-06-12 04:36:00,
2013-06-12 00:42:00,67.5,61.7,29.92,SW,236,0.0,2.0,82,0.00,,,0.00,0.0,meteohub,2013-06-12 04:42:00,
2013-06-12 00:47:00,67.6,62.2,29.92,SW,236,0.0,2.0,83,0.00,,,0.00,0.0,meteohub,2013-06-12 04:47:00,
2013-06-12 00:52:00,67.5,62.1,29.91,SW,236,0.0,1.0,83,0.00,,,0.00,0.0,meteohub,2013-06-12 04:52:00,
2013-06-12 00:57:00,67.3,61.9,29.92,North,5,0.0,1.0,83,0.00,,,0.00,0.0,meteohub,2013-06-12 04:57:00,
2013-06-12 01:03:00,66.9,61.9,29.91,NNW,327,0.0,1.0,84,0.00,,,0.00,0.0,meteohub,2013-06-12 05:03:00,
2013-06-12 01:09:00,66.9,61.9,29.91,NNW,336,1.0,2.0,84,0.00,,,0.00,0.0,meteohub,2013-06-12 05:09:00,
2013-06-12 01:15:00,66.7,61.7,29.91,NNW,336,0.0,1.0,84,0.00,,,0.00,0.0,meteohub,2013-06-12 05:15:00,
2013-06-12 01:21:00,66.6,61.9,29.91,NNW,336,0.0,1.0,85,0.00,,,0.00,0.0,meteohub,2013-06-12 05:21:00,
2013-06-12 01:27:00,66.6,62.2,29.91,NNW,336,0.0,1.0,86,0.00,,,0.00,0.0,meteohub,2013-06-12 05:27:00,
2013-06-12 01:32:00,66.6,61.5,29.91,NNW,336,0.0,1.0,84,0.00,,,0.00,0.0,meteohub,2013-06-12 05:32:00,
2013-06-12 01:40:00,66.7,62.1,29.91,NNW,336,1.0,1.0,85,0.00,,,0.00,0.0,meteohub,2013-06-12 05:40:00,
2013-06-12 01:46:00,66.6,61.9,29.90,NNW,336,0.0,2.0,85,0.00,,,0.00,0.0,meteohub,2013-06-12 05:46:00,
2013-06-12 01:52:00,66.6,61.9,29.91,NNW,336,1.0,2.0,85,0.00,,,0.00,0.0,meteohub,2013-06-12 05:52:00,
2013-06-12 01:58:00,66.4,62.1,29.90,North,350,0.0,2.0,86,0.00,,,0.00,0.0,meteohub,2013-06-12 05:58:00,
2013-06-12 02:04:00,66.4,61.7,29.90,North,350,1.0,3.0,85,0.00,,,0.00,0.0,meteohub,2013-06-12 06:04:00,
2013-06-12 02:10:00,66.2,61.2,29.89,North,350,0.0,3.0,84,0.00,,,0.00,0.0,meteohub,2013-06-12 06:10:00,
2013-06-12 02:16:00,66.2,61.5,29.90,North,350,1.0,2.0,85,0.00,,,0.00,0.0,meteohub,2013-06-12 06:16:00,
2013-06-12 02:22:00,66.0,61.7,29.90,North,350,1.0,2.0,86,0.00,,,0.00,0.0,meteohub,2013-06-12 06:22:00,
2013-06-12 02:27:00,66.0,61.7,29.90,North,350,0.0,2.0,86,0.00,,,0.00,0.0,meteohub,2013-06-12 06:27:00,
2013-06-12 02:34:00,66.0,62.1,29.90,North,350,0.0,2.0,87,0.00,,,0.00,0.0,meteohub,2013-06-12 06:34:00,
2013-06-12 02:40:00,66.0,61.7,29.90,North,350,0.0,1.0,86,0.00,,,0.00,0.0,meteohub,2013-06-12 06:40:00,
2013-06-12 02:46:00,66.2,62.2,29.90,North,350,0.0,1.0,87,0.00,,,0.00,0.0,meteohub,2013-06-12 06:46:00,
2013-06-12 02:52:00,66.4,62.4,29.90,North,350,0.0,2.0,87,0.00,,,0.00,0.0,meteohub,2013-06-12 06:52:00,
2013-06-12 03:05:00,66.4,62.1,29.89,NNW,344,0.0,2.0,86,0.00,,,0.00,0.0,meteohub,2013-06-12 07:05:00,
2013-06-12 03:11:00,66.2,62.2,29.89,NNW,344,0.0,2.0,87,0.00,,,0.00,0.0,meteohub,2013-06-12 07:11:00,
2013-06-12 03:17:00,65.8,61.9,29.89,NNW,344,1.0,2.0,87,0.00,,,0.00,0.0,meteohub,2013-06-12 07:17:00,
2013-06-12 03:23:00,65.7,62.1,29.89,NNW,344,1.0,2.0,88,0.00,,,0.00,0.0,meteohub,2013-06-12 07:23:00,
2013-06-12 03:29:00,65.5,61.9,29.89,NNW,344,1.0,2.0,88,0.00,,,0.00,0.0,meteohub,2013-06-12 07:29:00,
2013-06-12 03:35:00,65.5,61.5,29.88,NNW,344,0.0,1.0,87,0.00,,,0.00,0.0,meteohub,2013-06-12 07:35:00,
2013-06-12 03:41:00,65.7,62.1,29.89,NNW,344,0.0,2.0,88,0.00,,,0.00,0.0,meteohub,2013-06-12 07:41:00,
2013-06-12 03:47:00,65.7,62.2,29.89,NNW,344,0.0,2.0,89,0.00,,,0.00,0.0,meteohub,2013-06-12 07:47:00,
2013-06-12 03:52:00,65.5,62.2,29.89,NNW,344,1.0,1.0,89,0.00,,,0.00,0.0,meteohub,2013-06-12 07:52:00,
2013-06-12 03:57:00,65.3,61.7,29.88,NNW,344,0.0,1.0,88,0.00,,,0.00,0.0,meteohub,2013-06-12 07:57:00,
2013-06-12 04:02:00,65.1,61.9,29.88,NNW,344,1.0,1.0,89,0.00,,,0.00,0.0,meteohub,2013-06-12 08:02:00,
2013-06-12 04:07:00,64.9,61.9,29.88,NNW,344,0.0,1.0,90,0.00,,,0.00,0.0,meteohub,2013-06-12 08:07:00,
2013-06-12 04:12:00,64.9,61.9,29.88,NNW,344,0.0,1.0,90,0.00,,,0.00,0.0,meteohub,2013-06-12 08:12:00,
2013-06-12 04:17:00,64.9,61.9,29.88,NNW,344,0.0,1.0,90,0.00,,,0.00,0.0,meteohub,2013-06-12 08:17:00,
2013-06-12 04:22:00,64.9,61.7,29.88,North,5,2.0,2.0,89,0.00,,,0.00,0.0,meteohub,2013-06-12 08:22:00,
2013-06-12 04:27:00,65.5,61.5,29.88,North,5,0.0,9.0,87,0.00,,,0.00,0.0,meteohub,2013-06-12 08:27:00,
2013-06-12 04:32:00,66.0,61.7,29.88,North,0,0.0,9.0,86,0.00,,,0.00,0.0,meteohub,2013-06-12 08:32:00,
2013-06-12 04:37:00,66.4,61.7,29.89,North,5,4.0,11.0,85,0.00,,,0.00,0.0,meteohub,2013-06-12 08:37:00,
2013-06-12 04:42:00,66.6,61.9,29.89,North,5,3.0,11.0,85,0.00,,,0.00,0.0,meteohub,2013-06-12 08:42:00,
2013-06-12 04:47:00,66.6,61.9,29.88,North,5,4.0,11.0,85,0.00,,,0.00,0.0,meteohub,2013-06-12 08:47:00,
2013-06-12 04:52:00,66.4,61.7,29.88,North,5,3.0,7.0,85,0.00,,,0.00,0.0,meteohub,2013-06-12 08:52:00,
2013-06-12 04:57:00,66.2,61.5,29.88,North,5,3.0,6.0,85,0.00,,,0.00,0.0,meteohub,2013-06-12 08:57:00,
2013-06-12 05:02:00,66.0,61.7,29.89,North,5,2.0,6.0,86,0.00,,,0.00,0.0,meteohub,2013-06-12 09:02:00,
2013-06-12 05:07:00,66.0,61.3,29.89,North,5,0.0,4.0,85,0.00,,,0.00,0.0,meteohub,2013-06-12 09:07:00,
2013-06-12 05:12:00,66.0,61.3,29.88,North,5,0.0,4.0,85,0.00,,,0.00,0.0,meteohub,2013-06-12 09:12:00,
2013-06-12 05:17:00,66.0,60.6,29.88,West,263,0.0,4.0,83,0.00,,,0.00,0.0,meteohub,2013-06-12 09:17:00,
2013-06-12 05:22:00,66.0,59.7,29.88,West,273,0.0,2.0,80,0.00,,,0.00,0.0,meteohub,2013-06-12 09:22:00,
2013-06-12 05:27:00,66.6,59.5,29.88,NNE,33,0.0,2.0,78,0.00,,,0.00,0.0,meteohub,2013-06-12 09:27:00,
2013-06-12 05:32:00,67.3,59.9,29.88,West,276,0.0,5.0,77,0.00,,,0.00,0.0,meteohub,2013-06-12 09:32:00,
2013-06-12 05:37:00,67.6,59.7,29.88,SSW,209,0.0,5.0,76,0.00,,,0.00,0.0,meteohub,2013-06-12 09:37:00,
2013-06-12 05:42:00,68.2,60.3,29.88,SW,222,0.0,5.0,76,0.00,,,0.00,0.0,meteohub,2013-06-12 09:42:00,
2013-06-12 05:47:00,68.2,59.9,29.88,South,174,2.0,6.0,75,0.00,,,0.00,0.0,meteohub,2013-06-12 09:47:00,
2013-06-12 05:52:00,68.2,59.9,29.89,SSE,154,1.0,6.0,75,0.00,,,0.00,0.0,meteohub,2013-06-12 09:52:00,
2013-06-12 05:57:00,68.4,60.1,29.89,SSE,164,0.0,6.0,75,0.00,,,0.00,0.0,meteohub,2013-06-12 09:57:00,
2013-06-12 06:02:00,68.4,59.7,29.89,SSW,198,0.0,4.0,74,0.00,,,0.00,0.0,meteohub,2013-06-12 10:02:00,
2013-06-12 06:07:00,68.4,59.7,29.89,South,173,1.0,4.0,74,0.00,,,0.00,0.0,meteohub,2013-06-12 10:07:00,
2013-06-12 06:12:00,68.4,59.7,29.88,West,261,0.0,8.0,74,0.00,,,0.00,0.0,meteohub,2013-06-12 10:12:00,
2013-06-12 06:17:00,68.5,59.9,29.88,SW,225,0.0,8.0,74,0.00,,,0.00,0.0,meteohub,2013-06-12 10:17:00,
2013-06-12 06:22:00,68.7,59.7,29.88,East,79,0.0,8.0,73,0.00,,,0.00,5.0,meteohub,2013-06-12 10:22:00,
2013-06-12 06:27:00,69.1,60.1,29.89,West,269,7.0,9.0,73,0.00,,,0.00,9.0,meteohub,2013-06-12 10:27:00,
2013-06-12 06:32:00,69.1,59.4,29.89,South,184,0.0,9.0,71,0.00,,,0.00,11.0,meteohub,2013-06-12 10:32:00,
2013-06-12 06:37:00,69.4,60.1,29.89,SW,229,0.0,9.0,72,0.00,,,0.00,12.0,meteohub,2013-06-12 10:37:00,
2013-06-12 06:42:00,69.6,60.3,29.90,SSW,204,0.0,8.0,72,0.00,,,0.00,14.0,meteohub,2013-06-12 10:42:00,
2013-06-12 06:47:00,69.6,60.3,29.90,South,169,0.0,8.0,72,0.00,,,0.00,16.0,meteohub,2013-06-12 10:47:00,
2013-06-12 06:52:00,70.0,60.6,29.90,SW,232,2.0,6.0,72,0.00,,,0.00,19.0,meteohub,2013-06-12 10:52:00,
2013-06-12 06:57:00,70.0,61.0,29.90,West,269,0.0,5.0,73,0.00,,,0.00,25.0,meteohub,2013-06-12 10:57:00,
2013-06-12 07:02:00,70.0,60.6,29.90,SW,226,0.0,4.0,72,0.00,,,0.00,23.0,meteohub,2013-06-12 11:02:00,
2013-06-12 07:07:00,69.8,61.2,29.90,WSW,250,0.0,4.0,74,0.00,,,0.00,30.0,meteohub,2013-06-12 11:07:00,
2013-06-12 07:12:00,69.6,60.6,29.91,SSE,155,1.0,4.0,73,0.00,,,0.00,28.0,meteohub,2013-06-12 11:12:00,
2013-06-12 07:17:00,69.6,61.3,29.91,South,186,0.0,4.0,75,0.00,,,0.00,30.0,meteohub,2013-06-12 11:17:00,
2013-06-12 07:22:00,69.4,61.5,29.91,ESE,123,0.0,4.0,76,0.00,,,0.00,30.0,meteohub,2013-06-12 11:22:00,
2013-06-12 07:27:00,69.4,61.2,29.91,South,174,1.0,4.0,75,0.00,,,0.00,30.0,meteohub,2013-06-12 11:27:00,
2013-06-12 07:32:00,69.4,61.5,29.91,South,188,1.0,6.0,76,0.00,,,0.00,33.0,meteohub,2013-06-12 11:32:00,
2013-06-12 07:37:00,69.3,61.3,29.91,North,355,0.0,6.0,76,0.00,,,0.00,33.0,meteohub,2013-06-12 11:37:00,
2013-06-12 07:42:00,69.4,61.5,29.91,SSW,211,3.0,5.0,76,0.00,,,0.00,35.0,meteohub,2013-06-12 11:42:00,
2013-06-12 07:47:00,69.4,61.9,29.91,WSW,255,0.0,6.0,77,0.00,,,0.00,40.0,meteohub,2013-06-12 11:47:00,
2013-06-12 07:52:00,69.4,62.2,29.91,South,188,2.0,8.0,78,0.00,,,0.00,37.0,meteohub,2013-06-12 11:52:00,
2013-06-12 07:57:00,69.3,62.1,29.91,SE,138,0.0,8.0,78,0.00,,,0.00,35.0,meteohub,2013-06-12 11:57:00,
2013-06-12 08:02:00,69.4,62.2,29.91,ESE,122,1.0,8.0,78,0.00,,,0.00,39.0,meteohub,2013-06-12 12:02:00,
2013-06-12 08:07:00,69.4,62.2,29.92,SSW,207,0.0,5.0,78,0.00,,,0.00,51.0,meteohub,2013-06-12 12:07:00,
2013-06-12 08:12:00,69.3,62.1,29.92,SW,215,0.0,6.0,78,0.00,,,0.00,69.0,meteohub,2013-06-12 12:12:00,
2013-06-12 08:17:00,69.1,62.2,29.92,SW,227,2.0,6.0,79,0.00,,,0.00,84.0,meteohub,2013-06-12 12:17:00,
2013-06-12 08:22:00,69.3,62.8,29.92,NE,51,0.0,4.0,80,0.00,,,0.00,104.0,meteohub,2013-06-12 12:22:00,
2013-06-12 08:27:00,69.4,63.0,29.92,South,175,0.0,5.0,80,0.00,,,0.00,97.0,meteohub,2013-06-12 12:27:00,
2013-06-12 08:32:00,69.4,63.3,29.92,South,173,1.0,5.0,81,0.00,,,0.00,86.0,meteohub,2013-06-12 12:32:00,
2013-06-12 08:37:00,69.4,63.0,29.92,SSW,213,0.0,5.0,80,0.00,,,0.00,77.0,meteohub,2013-06-12 12:37:00,
2013-06-12 08:42:00,69.4,63.3,29.92,SSW,201,2.0,5.0,81,0.00,,,0.00,95.0,meteohub,2013-06-12 12:42:00,
2013-06-12 08:47:00,69.6,63.1,29.92,South,188,0.0,8.0,80,0.00,,,0.00,121.0,meteohub,2013-06-12 12:47:00,
2013-06-12 08:52:00,69.6,63.9,29.92,East,100,0.0,8.0,82,0.00,,,0.00,142.0,meteohub,2013-06-12 12:52:00,
2013-06-12 08:57:00,70.0,64.2,29.92,SE,143,2.0,8.0,82,0.00,,,0.00,156.0,meteohub,2013-06-12 12:57:00,
2013-06-12 09:02:00,70.3,64.6,29.92,SE,142,4.0,7.0,82,0.00,,,0.00,144.0,meteohub,2013-06-12 13:02:00,
2013-06-12 09:07:00,70.5,64.0,29.92,South,182,1.0,6.0,80,0.00,,,0.00,151.0,meteohub,2013-06-12 13:07:00,
2013-06-12 09:12:00,70.9,65.5,29.92,ENE,71,0.0,6.0,83,0.00,,,0.00,153.0,meteohub,2013-06-12 13:12:00,
2013-06-12 09:17:00,70.9,64.8,29.93,SSW,196,0.0,6.0,81,0.00,,,0.00,155.0,meteohub,2013-06-12 13:17:00,
2013-06-12 09:22:00,70.9,64.8,29.93,SSW,194,1.0,6.0,81,0.00,,,0.00,171.0,meteohub,2013-06-12 13:22:00,
2013-06-12 09:27:00,71.1,65.7,29.93,South,190,0.0,6.0,83,0.00,,,0.00,183.0,meteohub,2013-06-12 13:27:00,
2013-06-12 09:32:00,71.1,66.0,29.93,South,188,0.0,6.0,84,0.00,,,0.00,185.0,meteohub,2013-06-12 13:32:00,
2013-06-12 09:37:00,71.2,65.5,29.93,SE,130,0.0,4.0,82,0.00,,,0.00,185.0,meteohub,2013-06-12 13:37:00,
2013-06-12 09:42:00,71.2,66.2,29.93,South,169,0.0,5.0,84,0.00,,,0.00,176.0,meteohub,2013-06-12 13:42:00,
2013-06-12 09:47:00,71.4,65.7,29.93,NE,48,0.0,5.0,82,0.00,,,0.00,179.0,meteohub,2013-06-12 13:47:00,
2013-06-12 09:52:00,71.6,65.8,29.93,South,176,0.0,5.0,82,0.00,,,0.00,162.0,meteohub,2013-06-12 13:52:00,
2013-06-12 09:57:00,71.8,66.0,29.93,ESE,117,0.0,4.0,82,0.00,,,0.00,139.0,meteohub,2013-06-12 13:57:00,
2013-06-12 10:02:00,72.0,65.8,29.93,West,262,0.0,4.0,81,0.00,,,0.00,134.0,meteohub,2013-06-12 14:02:00,
2013-06-12 10:07:00,72.0,66.6,29.93,West,259,0.0,4.0,83,0.00,,,0.00,111.0,meteohub,2013-06-12 14:07:00,
2013-06-12 10:12:00,72.0,66.9,29.92,SSW,211,1.0,4.0,84,0.00,,,0.00,118.0,meteohub,2013-06-12 14:12:00,
2013-06-12 10:17:00,71.8,67.1,29.93,SSW,201,0.0,4.0,85,0.00,,,0.00,128.0,meteohub,2013-06-12 14:17:00,
2013-06-12 10:22:00,71.8,67.1,29.93,East,99,0.0,2.0,85,0.00,,,0.00,139.0,meteohub,2013-06-12 14:22:00,
2013-06-12 10:27:00,71.8,67.1,29.93,SW,221,0.0,2.0,85,0.00,,,0.00,141.0,meteohub,2013-06-12 14:27:00,
2013-06-12 10:32:00,71.8,67.1,29.93,SW,221,0.0,2.0,85,0.00,,,0.00,130.0,meteohub,2013-06-12 14:32:00,
2013-06-12 10:37:00,72.0,67.3,29.93,South,174,0.0,2.0,85,0.00,,,0.00,130.0,meteohub,2013-06-12 14:37:00,
2013-06-12 10:42:00,72.0,67.5,29.93,WSW,250,0.0,2.0,86,0.00,,,0.00,127.0,meteohub,2013-06-12 14:42:00,
2013-06-12 10:47:00,72.0,67.3,29.94,WSW,250,0.0,2.0,85,0.00,,,0.00,90.0,meteohub,2013-06-12 14:47:00,
2013-06-12 10:52:00,72.1,67.5,29.94,WSW,250,0.0,2.0,85,0.00,,,0.00,146.0,meteohub,2013-06-12 14:52:00,
2013-06-12 10:58:00,72.5,68.4,29.94,WSW,237,0.0,1.0,87,0.00,,,0.00,137.0,meteohub,2013-06-12 14:58:00,
2013-06-12 11:04:00,72.7,68.5,29.94,WSW,237,0.0,1.0,87,0.00,,,0.00,116.0,meteohub,2013-06-12 15:04:00,
2013-06-12 11:10:00,72.9,68.7,29.94,WSW,237,0.0,0.0,87,0.00,,,0.00,113.0,meteohub,2013-06-12 15:10:00,
2013-06-12 11:16:00,72.9,67.8,29.94,SW,215,0.0,0.0,84,0.00,,,0.00,118.0,meteohub,2013-06-12 15:16:00,
2013-06-12 11:22:00,73.0,68.2,29.93,SW,216,0.0,1.0,85,0.00,,,0.00,128.0,meteohub,2013-06-12 15:22:00,
2013-06-12 11:27:00,73.0,67.6,29.94,SSW,213,0.0,4.0,83,0.00,,,0.00,132.0,meteohub,2013-06-12 15:27:00,
2013-06-12 11:32:00,73.2,67.8,29.94,SW,219,0.0,4.0,83,0.00,,,0.00,137.0,meteohub,2013-06-12 15:32:00,
2013-06-12 11:37:00,73.2,67.8,29.94,SW,219,0.0,4.0,83,0.00,,,0.00,149.0,meteohub,2013-06-12 15:37:00,
2013-06-12 11:42:00,73.4,68.0,29.94,ENE,64,0.0,4.0,83,0.00,,,0.00,162.0,meteohub,2013-06-12 15:42:00,
2013-06-12 11:47:00,73.6,68.4,29.94,SW,230,0.0,2.0,84,0.00,,,0.00,176.0,meteohub,2013-06-12 15:47:00,
2013-06-12 11:52:00,73.8,68.4,29.94,WSW,238,0.0,2.0,83,0.00,,,0.00,179.0,meteohub,2013-06-12 15:52:00,
2013-06-12 11:57:00,73.8,68.5,29.94,SW,234,1.0,2.0,84,0.00,,,0.00,120.0,meteohub,2013-06-12 15:57:00,
2013-06-12 12:02:00,73.8,69.3,29.94,SW,232,0.0,2.0,86,0.00,,,0.00,195.0,meteohub,2013-06-12 16:02:00,
2013-06-12 12:07:00,73.9,69.4,29.94,SW,232,0.0,2.0,86,0.00,,,0.00,257.0,meteohub,2013-06-12 16:07:00,
2013-06-12 12:12:00,74.5,70.7,29.94,SW,232,0.0,2.0,88,0.00,,,0.00,348.0,meteohub,2013-06-12 16:12:00,
2013-06-12 12:17:00,75.4,71.6,29.94,East,98,0.0,0.0,88,0.00,,,0.00,1071.0,meteohub,2013-06-12 16:17:00,
2013-06-12 12:22:00,76.3,71.1,29.94,East,94,0.0,2.0,84,0.00,,,0.00,248.0,meteohub,2013-06-12 16:22:00,
2013-06-12 12:27:00,76.6,71.1,29.94,East,94,0.0,2.0,83,0.00,,,0.00,292.0,meteohub,2013-06-12 16:27:00,
2013-06-12 12:32:00,76.8,72.0,29.93,East,94,0.0,2.0,85,0.00,,,0.00,287.0,meteohub,2013-06-12 16:32:00,
2013-06-12 12:37:00,77.0,71.4,29.93,East,94,0.0,1.0,83,0.00,,,0.00,323.0,meteohub,2013-06-12 16:37:00,
2013-06-12 12:42:00,77.5,69.8,29.93,East,97,0.0,1.0,77,0.00,,,0.00,1099.0,meteohub,2013-06-12 16:42:00,
2013-06-12 12:47:00,78.4,70.2,29.93,SSE,149,1.0,1.0,76,0.00,,,0.00,1130.0,meteohub,2013-06-12 16:47:00,
2013-06-12 12:52:00,79.3,69.1,29.93,SSE,149,0.0,2.0,71,0.00,,,0.00,904.0,meteohub,2013-06-12 16:52:00,
2013-06-12 12:57:00,79.7,67.8,29.93,ENE,71,0.0,2.0,67,0.00,,,0.00,870.0,meteohub,2013-06-12 16:57:00,
2013-06-12 13:02:00,80.4,68.9,29.93,North,10,0.0,1.0,68,0.00,,,0.00,712.0,meteohub,2013-06-12 17:02:00,
2013-06-12 13:07:00,81.0,68.9,29.93,North,0,1.0,1.0,67,0.00,,,0.00,981.0,meteohub,2013-06-12 17:07:00,
2013-06-12 13:12:00,81.3,66.6,29.92,NNE,28,4.0,4.0,61,0.00,,,0.00,675.0,meteohub,2013-06-12 17:12:00,
2013-06-12 13:17:00,81.5,67.6,29.92,SE,134,0.0,4.0,63,0.00,,,0.00,724.0,meteohub,2013-06-12 17:17:00,
2013-06-12 13:22:00,81.7,66.9,29.92,ENE,63,0.0,4.0,61,0.00,,,0.00,977.0,meteohub,2013-06-12 17:22:00,
2013-06-12 13:27:00,81.9,66.2,29.92,East,89,0.0,4.0,59,0.00,,,0.00,976.0,meteohub,2013-06-12 17:27:00,
2013-06-12 13:32:00,82.4,68.0,29.92,SSE,163,0.0,4.0,62,0.00,,,0.00,1000.0,meteohub,2013-06-12 17:32:00,
2013-06-12 13:37:00,82.8,69.3,29.92,East,88,0.0,3.0,64,0.00,,,0.00,1007.0,meteohub,2013-06-12 17:37:00,
2013-06-12 13:42:00,83.5,68.2,29.92,East,89,0.0,3.0,60,0.00,,,0.00,1007.0,meteohub,2013-06-12 17:42:00,
2013-06-12 13:47:00,83.8,70.0,29.92,East,90,0.0,2.0,63,0.00,,,0.00,979.0,meteohub,2013-06-12 17:47:00,
2013-06-12 13:52:00,84.6,70.2,29.92,North,5,0.0,2.0,62,0.00,,,0.00,1034.0,meteohub,2013-06-12 17:52:00,
2013-06-12 13:57:00,84.7,69.3,29.91,NNE,18,1.0,2.0,60,0.00,,,0.00,1032.0,meteohub,2013-06-12 17:57:00,
2013-06-12 14:02:00,84.7,68.9,29.91,East,88,0.0,3.0,59,0.00,,,0.00,1035.0,meteohub,2013-06-12 18:02:00,
2013-06-12 14:07:00,84.9,69.4,29.91,SE,133,0.0,3.0,60,0.00,,,0.00,1030.0,meteohub,2013-06-12 18:07:00,
2013-06-12 14:12:00,84.9,70.5,29.91,East,93,0.0,4.0,62,0.00,,,0.00,1048.0,meteohub,2013-06-12 18:12:00,
2013-06-12 14:17:00,85.1,68.7,29.91,East,94,1.0,4.0,58,0.00,,,0.00,1144.0,meteohub,2013-06-12 18:17:00,
2013-06-12 14:22:00,84.9,70.0,29.91,ESE,107,1.0,4.0,61,0.00,,,0.00,918.0,meteohub,2013-06-12 18:22:00,
2013-06-12 14:27:00,85.1,71.6,29.91,East,96,0.0,4.0,64,0.00,,,0.00,1030.0,meteohub,2013-06-12 18:27:00,
2013-06-12 14:32:00,85.3,68.9,29.91,ENE,78,0.0,2.0,58,0.00,,,0.00,1194.0,meteohub,2013-06-12 18:32:00,
2013-06-12 14:37:00,85.6,70.2,29.91,East,89,0.0,2.0,60,0.00,,,0.00,909.0,meteohub,2013-06-12 18:37:00,
2013-06-12 14:42:00,85.5,70.5,29.91,ENE,75,0.0,2.0,61,0.00,,,0.00,867.0,meteohub,2013-06-12 18:42:00,
2013-06-12 14:47:00,84.7,71.6,29.91,East,92,0.0,2.0,65,0.00,,,0.00,547.0,meteohub,2013-06-12 18:47:00,
2013-06-12 14:52:00,84.4,71.2,29.91,SE,146,0.0,2.0,65,0.00,,,0.00,388.0,meteohub,2013-06-12 18:52:00,
2013-06-12 14:57:00,84.0,71.1,29.91,East,88,0.0,2.0,65,0.00,,,0.00,388.0,meteohub,2013-06-12 18:57:00,
2013-06-12 15:02:00,84.0,72.0,29.91,ENE,58,0.0,2.0,67,0.00,,,0.00,1020.0,meteohub,2013-06-12 19:02:00,
2013-06-12 15:07:00,84.2,71.2,29.90,ENE,61,0.0,2.0,65,0.00,,,0.00,1020.0,meteohub,2013-06-12 19:07:00,
2013-06-12 15:12:00,84.4,71.2,29.90,ENE,71,0.0,1.0,65,0.00,,,0.00,1093.0,meteohub,2013-06-12 19:12:00,
2013-06-12 15:17:00,84.9,74.5,29.90,SE,125,0.0,1.0,71,0.00,,,0.00,1041.0,meteohub,2013-06-12 19:17:00,
2013-06-12 15:22:00,85.3,74.8,29.90,SE,136,0.0,1.0,71,0.00,,,0.00,1097.0,meteohub,2013-06-12 19:22:00,
2013-06-12 15:27:00,85.3,71.8,29.90,East,94,0.0,1.0,64,0.00,,,0.00,1144.0,meteohub,2013-06-12 19:27:00,
2013-06-12 15:32:00,84.9,73.2,29.90,East,94,0.0,2.0,68,0.00,,,0.00,392.0,meteohub,2013-06-12 19:32:00,
2013-06-12 15:37:00,85.1,72.5,29.90,East,94,2.0,2.0,66,0.00,,,0.00,995.0,meteohub,2013-06-12 19:37:00,
2013-06-12 15:42:00,85.1,73.4,29.89,ESE,121,0.0,2.0,68,0.00,,,0.00,970.0,meteohub,2013-06-12 19:42:00,
2013-06-12 15:47:00,84.9,74.1,29.89,SE,128,0.0,4.0,70,0.00,,,0.00,939.0,meteohub,2013-06-12 19:47:00,
2013-06-12 15:52:00,84.9,73.2,29.89,ESE,105,0.0,4.0,68,0.00,,,0.00,983.0,meteohub,2013-06-12 19:52:00,
2013-06-12 15:57:00,84.7,73.4,29.89,ESE,103,1.0,4.0,69,0.00,,,0.00,970.0,meteohub,2013-06-12 19:57:00,
2013-06-12 16:02:00,84.6,72.9,29.88,SE,136,0.0,2.0,68,0.00,,,0.00,585.0,meteohub,2013-06-12 20:02:00,
2013-06-12 16:07:00,84.4,73.0,29.88,SSE,165,1.0,2.0,69,0.00,,,0.00,951.0,meteohub,2013-06-12 20:07:00,
2013-06-12 16:12:00,84.6,74.1,29.88,SSE,157,0.0,2.0,71,0.00,,,0.00,891.0,meteohub,2013-06-12 20:12:00,
2013-06-12 16:17:00,84.7,74.7,29.88,SE,138,1.0,2.0,72,0.00,,,0.00,865.0,meteohub,2013-06-12 20:17:00,
2013-06-12 16:22:00,84.7,73.4,29.88,WNW,298,0.0,2.0,69,0.00,,,0.00,856.0,meteohub,2013-06-12 20:22:00,
2013-06-12 16:27:00,84.7,73.4,29.88,East,100,0.0,3.0,69,0.00,,,0.00,823.0,meteohub,2013-06-12 20:27:00,
2013-06-12 16:32:00,84.7,73.9,29.88,East,82,0.0,3.0,70,0.00,,,0.00,789.0,meteohub,2013-06-12 20:32:00,
2013-06-12 16:37:00,84.7,74.3,29.87,East,96,0.0,3.0,71,0.00,,,0.00,744.0,meteohub,2013-06-12 20:37:00,
2013-06-12 16:42:00,84.4,73.6,29.87,ESE,103,0.0,3.0,70,0.00,,,0.00,733.0,meteohub,2013-06-12 20:42:00,
2013-06-12 16:47:00,84.4,73.9,29.87,NE,46,1.0,3.0,71,0.00,,,0.00,714.0,meteohub,2013-06-12 20:47:00,
2013-06-12 16:52:00,84.2,74.1,29.87,NE,46,0.0,3.0,72,0.00,,,0.00,703.0,meteohub,2013-06-12 20:52:00,
2013-06-12 16:57:00,84.0,73.9,29.87,ESE,109,0.0,4.0,72,0.00,,,0.00,680.0,meteohub,2013-06-12 20:57:00,
2013-06-12 17:02:00,83.8,74.7,29.87,ESE,110,0.0,4.0,74,0.00,,,0.00,696.0,meteohub,2013-06-12 21:02:00,
2013-06-12 17:07:00,83.7,73.6,29.87,South,189,0.0,4.0,72,0.00,,,0.00,232.0,meteohub,2013-06-12 21:07:00,
2013-06-12 17:12:00,83.1,74.3,29.87,South,188,0.0,2.0,75,0.00,,,0.00,258.0,meteohub,2013-06-12 21:12:00,
2013-06-12 17:17:00,82.9,73.8,29.87,South,188,0.0,2.0,74,0.00,,,0.00,304.0,meteohub,2013-06-12 21:17:00,
2013-06-12 17:22:00,82.6,74.7,29.86,South,188,0.0,2.0,77,0.00,,,0.00,253.0,meteohub,2013-06-12 21:22:00,
2013-06-12 17:27:00,82.0,74.1,29.86,SSE,158,0.0,1.0,77,0.00,,,0.00,223.0,meteohub,2013-06-12 21:27:00,
2013-06-12 17:32:00,81.9,73.9,29.86,SSE,147,0.0,1.0,77,0.00,,,0.00,237.0,meteohub,2013-06-12 21:32:00,
2013-06-12 17:37:00,81.5,73.6,29.86,SSE,147,0.0,1.0,77,0.00,,,0.00,209.0,meteohub,2013-06-12 21:37:00,
2013-06-12 17:42:00,81.5,73.6,29.86,SSE,147,0.0,1.0,77,0.00,,,0.00,591.0,meteohub,2013-06-12 21:42:00,
2013-06-12 17:47:00,81.7,73.8,29.86,North,11,0.0,1.0,77,0.00,,,0.00,200.0,meteohub,2013-06-12 21:47:00,
2013-06-12 17:52:00,81.7,73.8,29.86,ESE,114,1.0,2.0,77,0.00,,,0.00,190.0,meteohub,2013-06-12 21:52:00,
2013-06-12 17:57:00,81.1,73.6,29.86,ESE,115,0.0,2.0,78,0.00,,,0.00,227.0,meteohub,2013-06-12 21:57:00,
2013-06-12 18:02:00,81.0,73.8,29.86,ESE,114,0.0,2.0,79,0.00,,,0.00,424.0,meteohub,2013-06-12 22:02:00,
2013-06-12 18:07:00,81.0,73.8,29.85,ESE,122,0.0,2.0,79,0.00,,,0.00,422.0,meteohub,2013-06-12 22:07:00,
2013-06-12 18:12:00,81.0,73.4,29.85,ESE,122,0.0,1.0,78,0.00,,,0.00,383.0,meteohub,2013-06-12 22:12:00,
2013-06-12 18:17:00,81.0,73.4,29.85,ESE,109,0.0,1.0,78,0.00,,,0.00,345.0,meteohub,2013-06-12 22:17:00,
2013-06-12 18:22:00,80.8,73.2,29.85,East,92,0.0,1.0,78,0.00,,,0.00,308.0,meteohub,2013-06-12 22:22:00,
2013-06-12 18:27:00,80.4,72.9,29.85,SE,124,0.0,1.0,78,0.00,,,0.00,141.0,meteohub,2013-06-12 22:27:00,
2013-06-12 18:32:00,80.1,72.5,29.85,ESE,105,0.0,1.0,78,0.00,,,0.00,111.0,meteohub,2013-06-12 22:32:00,
2013-06-12 18:37:00,79.5,72.5,29.85,ESE,105,0.0,1.0,79,0.00,,,0.00,139.0,meteohub,2013-06-12 22:37:00,
2013-06-12 18:42:00,79.2,72.1,29.85,East,96,0.0,1.0,79,0.00,,,0.00,77.0,meteohub,2013-06-12 22:42:00,
2013-06-12 18:47:00,78.8,71.4,29.86,East,87,0.0,1.0,78,0.00,,,0.00,90.0,meteohub,2013-06-12 22:47:00,
2013-06-12 18:52:00,78.6,71.6,29.86,East,86,0.0,1.0,79,0.00,,,0.00,88.0,meteohub,2013-06-12 22:52:00,
2013-06-12 18:57:00,78.4,71.4,29.86,North,0,0.0,2.0,79,0.00,,,0.00,102.0,meteohub,2013-06-12 22:57:00,
2013-06-12 19:02:00,78.4,71.1,29.86,ENE,63,1.0,2.0,78,0.00,,,0.00,107.0,meteohub,2013-06-12 23:02:00,
2013-06-12 19:07:00,78.6,71.6,29.86,ENE,75,0.0,2.0,79,0.00,,,0.00,102.0,meteohub,2013-06-12 23:07:00,
2013-06-12 19:12:00,78.6,71.2,29.86,SW,229,1.0,2.0,78,0.00,,,0.00,93.0,meteohub,2013-06-12 23:12:00,
2013-06-12 19:17:00,78.8,71.8,29.86,SE,132,0.0,4.0,79,0.00,,,0.00,76.0,meteohub,2013-06-12 23:17:00,
2013-06-12 19:22:00,78.6,71.6,29.86,ESE,115,0.0,4.0,79,0.00,,,0.00,67.0,meteohub,2013-06-12 23:22:00,
2013-06-12 19:27:00,78.6,72.0,29.86,ESE,110,0.0,2.0,80,0.00,,,0.00,58.0,meteohub,2013-06-12 23:27:00,
2013-06-12 19:32:00,78.4,71.8,29.86,ENE,65,0.0,2.0,80,0.00,,,0.00,53.0,meteohub,2013-06-12 23:32:00,
2013-06-12 19:37:00,78.4,71.8,29.86,NE,41,0.0,2.0,80,0.00,,,0.00,49.0,meteohub,2013-06-12 23:37:00,
2013-06-12 19:42:00,78.4,71.8,29.86,North,350,0.0,2.0,80,0.00,,,0.00,42.0,meteohub,2013-06-12 23:42:00,
2013-06-12 19:47:00,78.4,71.8,29.86,NNE,30,0.0,2.0,80,0.00,,,0.00,39.0,meteohub,2013-06-12 23:47:00,
2013-06-12 19:52:00,78.3,72.0,29.86,NE,46,0.0,2.0,81,0.00,,,0.00,35.0,meteohub,2013-06-12 23:52:00,
2013-06-12 19:57:00,78.3,71.6,29.85,North,5,0.0,2.0,80,0.00,,,0.00,32.0,meteohub,2013-06-12 23:57:00,
2013-06-12 20:02:00,78.1,71.4,29.85,NNW,343,0.0,2.0,80,0.00,,,0.00,28.0,meteohub,2013-06-13 00:02:00,
2013-06-12 20:07:00,78.1,71.8,29.86,ESE,109,0.0,2.0,81,0.00,,,0.00,26.0,meteohub,2013-06-13 00:07:00,
2013-06-12 20:12:00,78.1,71.8,29.86,ESE,109,0.0,2.0,81,0.00,,,0.00,25.0,meteohub,2013-06-13 00:12:00,
2013-06-12 20:17:00,77.9,71.6,29.86,North,5,0.0,1.0,81,0.00,,,0.00,21.0,meteohub,2013-06-13 00:17:00,
2013-06-12 20:22:00,77.9,72.0,29.86,SSW,209,1.0,7.0,82,0.00,,,0.00,19.0,meteohub,2013-06-13 00:22:00,
2013-06-12 20:27:00,77.7,71.8,29.86,NNE,20,1.0,8.0,82,0.00,,,0.00,14.0,meteohub,2013-06-13 00:27:00,
2013-06-12 20:32:00,77.7,72.1,29.86,NNE,20,0.0,8.0,83,0.00,,,0.00,11.0,meteohub,2013-06-13 00:32:00,
2013-06-12 20:37:00,77.5,72.3,29.85,NNE,20,0.0,8.0,84,0.00,,,0.00,7.0,meteohub,2013-06-13 00:37:00,
2013-06-12 20:42:00,77.4,72.1,29.85,NNE,20,0.0,2.0,84,0.00,,,0.00,5.0,meteohub,2013-06-13 00:42:00,
2013-06-12 20:47:00,77.2,72.3,29.85,NNE,20,0.0,0.0,85,0.00,,,0.00,0.0,meteohub,2013-06-13 00:47:00,
2013-06-12 20:52:00,76.8,72.0,29.85,NNE,20,0.0,0.0,85,0.00,,,0.00,0.0,meteohub,2013-06-13 00:52:00,
2013-06-12 20:57:00,76.6,72.1,29.85,NNE,20,0.0,0.0,86,0.00,,,0.00,0.0,meteohub,2013-06-13 00:57:00,
2013-06-12 21:02:00,76.3,71.8,29.85,NNE,20,0.0,0.0,86,0.00,,,0.00,0.0,meteohub,2013-06-13 01:02:00,
2013-06-12 21:08:00,75.9,71.8,29.85,NNE,20,0.0,0.0,87,0.00,,,0.00,0.0,meteohub,2013-06-13 01:08:00,
2013-06-12 21:14:00,75.6,71.8,29.85,NNE,20,0.0,0.0,88,0.00,,,0.00,0.0,meteohub,2013-06-13 01:14:00,
2013-06-12 21:20:00,75.6,72.1,29.85,NNE,20,0.0,0.0,89,0.00,,,0.00,0.0,meteohub,2013-06-13 01:20:00,
2013-06-12 21:26:00,75.4,72.0,29.84,NNE,20,0.0,1.0,89,0.00,,,0.00,0.0,meteohub,2013-06-13 01:26:00,
2013-06-12 21:32:00,75.2,71.8,29.84,NNE,20,0.0,1.0,89,0.00,,,0.00,0.0,meteohub,2013-06-13 01:32:00,
2013-06-12 21:37:00,74.8,71.8,29.84,NNE,20,0.0,1.0,90,0.00,,,0.00,0.0,meteohub,2013-06-13 01:37:00,
2013-06-12 21:42:00,74.7,71.6,29.84,NNE,20,0.0,0.0,90,0.00,,,0.00,0.0,meteohub,2013-06-13 01:42:00,
2013-06-12 21:47:00,74.5,71.6,29.84,NNE,20,0.0,0.0,91,0.00,,,0.00,0.0,meteohub,2013-06-13 01:47:00,
2013-06-12 21:52:00,74.3,71.4,29.84,NNE,20,0.0,0.0,91,0.00,,,0.00,0.0,meteohub,2013-06-13 01:52:00,
2013-06-12 21:57:00,74.3,71.4,29.85,NNE,20,0.0,0.0,91,0.00,,,0.00,0.0,meteohub,2013-06-13 01:57:00,
2013-06-12 22:02:00,74.3,71.4,29.85,NNE,20,0.0,0.0,91,0.00,,,0.00,0.0,meteohub,2013-06-13 02:02:00,
2013-06-12 22:07:00,74.3,71.2,29.85,NNE,20,0.0,0.0,90,0.00,,,0.00,0.0,meteohub,2013-06-13 02:07:00,
2013-06-12 22:12:00,74.1,71.1,29.84,NNE,20,0.0,1.0,90,0.00,,,0.00,0.0,meteohub,2013-06-13 02:12:00,
2013-06-12 22:17:00,74.1,71.2,29.84,NNE,20,0.0,1.0,91,0.00,,,0.00,0.0,meteohub,2013-06-13 02:17:00,
2013-06-12 22:22:00,73.9,70.9,29.84,NNE,20,0.0,1.0,90,0.00,,,0.00,0.0,meteohub,2013-06-13 02:22:00,
2013-06-12 22:27:00,73.9,71.1,29.84,NNE,20,0.0,1.0,91,0.00,,,0.00,0.0,meteohub,2013-06-13 02:27:00,
2013-06-12 22:32:00,73.8,70.7,29.84,NNE,20,0.0,1.0,90,0.00,,,0.00,0.0,meteohub,2013-06-13 02:32:00,
2013-06-12 22:37:00,73.6,70.5,29.85,NNE,20,0.0,1.0,90,0.00,,,0.00,0.0,meteohub,2013-06-13 02:37:00,
2013-06-12 22:42:00,73.4,70.3,29.85,NNE,20,0.0,0.0,90,0.00,,,0.00,0.0,meteohub,2013-06-13 02:42:00,
2013-06-12 22:47:00,73.2,69.8,29.85,NNE,20,0.0,2.0,89,0.00,,,0.00,0.0,meteohub,2013-06-13 02:47:00,
2013-06-12 22:52:00,73.2,69.8,29.84,WSW,254,0.0,2.0,89,0.00,,,0.00,0.0,meteohub,2013-06-13 02:52:00,
2013-06-12 22:57:00,73.2,69.4,29.84,WSW,251,1.0,2.0,88,0.00,,,0.00,0.0,meteohub,2013-06-13 02:57:00,
2013-06-12 23:02:00,73.2,68.7,29.84,WSW,251,0.0,2.0,86,0.00,,,0.00,0.0,meteohub,2013-06-13 03:02:00,
2013-06-12 23:07:00,73.4,67.3,29.84,WSW,251,0.0,1.0,81,0.00,,,0.00,0.0,meteohub,2013-06-13 03:07:00,
2013-06-12 23:12:00,73.6,67.8,29.84,NNW,335,0.0,1.0,82,0.00,,,0.00,0.0,meteohub,2013-06-13 03:12:00,
2013-06-12 23:17:00,73.8,68.4,29.84,NNW,327,0.0,2.0,83,0.00,,,0.00,0.0,meteohub,2013-06-13 03:17:00,
2013-06-12 23:22:00,73.8,67.3,29.83,NNW,327,0.0,2.0,80,0.00,,,0.00,0.0,meteohub,2013-06-13 03:22:00,
2013-06-12 23:27:00,73.8,67.6,29.83,NNW,348,0.0,2.0,81,0.00,,,0.00,0.0,meteohub,2013-06-13 03:27:00,
2013-06-12 23:32:00,73.8,67.6,29.83,NNW,348,0.0,1.0,81,0.00,,,0.00,0.0,meteohub,2013-06-13 03:32:00,
2013-06-12 23:37:00,73.9,67.1,29.83,ENE,63,0.0,2.0,79,0.00,,,0.00,0.0,meteohub,2013-06-13 03:37:00,
2013-06-12 23:42:00,74.5,67.5,29.83,North,355,0.0,2.0,79,0.00,,,0.00,0.0,meteohub,2013-06-13 03:42:00,
2013-06-12 23:47:00,74.7,66.6,29.83,ENE,61,0.0,2.0,76,0.00,,,0.00,0.0,meteohub,2013-06-13 03:47:00,
2013-06-12 23:52:00,75.0,67.3,29.83,NNE,24,1.0,2.0,77,0.00,,,0.00,0.0,meteohub,2013-06-13 03:52:00,
2013-06-12 23:57:00,75.4,66.6,29.82,ENE,61,0.0,3.0,74,0.00,,,0.00,0.0,meteohub,2013-06-13 03:57:00,